createdAt,value
2018-12-04T00:01:18.363Z,99292.25
2018-12-04T00:03:50.945Z,99300.59
2018-12-04T00:06:23.646Z,99305.14
2018-12-04T00:08:56.224Z,99319.84
2018-12-04T00:11:28.898Z,99314.33
2018-12-04T00:14:01.442Z,99313.52
2018-12-04T00:16:34.038Z,99310.88
2018-12-04T00:19:06.589Z,99319.07
2018-12-04T00:21:39.162Z,99319.00
2018-12-04T00:24:11.733Z,99328.52
2018-12-04T00:26:44.386Z,99332.47
2018-12-04T00:29:16.938Z,99337.25
2018-12-04T00:31:49.540Z,99345.11
2018-12-04T00:34:22.118Z,99356.80
2018-12-04T00:36:54.710Z,99368.87
2018-12-04T00:39:27.277Z,99374.73
2018-12-04T00:41:59.960Z,99384.13
2018-12-04T00:44:32.511Z,99378.95
2018-12-04T00:47:05.100Z,99392.75
2018-12-04T00:49:37.645Z,99399.44
2018-12-04T00:52:10.222Z,99410.22
2018-12-04T00:54:42.772Z,99416.60
2018-12-04T00:57:15.421Z,99431.92
2018-12-04T00:59:47.970Z,99432.94
2018-12-04T01:02:20.548Z,99448.64
2018-12-04T01:04:53.118Z,99442.81
2018-12-04T01:07:25.710Z,99441.12
2018-12-04T01:09:58.254Z,99446.84
2018-12-04T01:12:30.941Z,99452.88
2018-12-04T01:15:03.506Z,99465.65
2018-12-04T01:17:36.107Z,99480.66
2018-12-04T01:20:08.808Z,99480.70
2018-12-04T01:22:41.481Z,99485.66
2018-12-04T01:25:14.044Z,99488.49
2018-12-04T01:27:46.733Z,99491.78
2018-12-04T01:30:19.314Z,99501.47
2018-12-04T01:32:51.885Z,99513.48
2018-12-04T01:35:24.474Z,99512.95
2018-12-04T01:37:57.158Z,99523.95
2018-12-04T01:40:29.709Z,99521.89
2018-12-04T01:43:02.316Z,99533.38
2018-12-04T01:45:34.862Z,99545.86
2018-12-04T01:48:07.446Z,99551.97
2018-12-04T01:50:39.992Z,99567.38
2018-12-04T01:53:12.562Z,99568.31
2018-12-04T01:55:45.111Z,99565.38
2018-12-04T01:58:17.707Z,99567.03
2018-12-04T02:00:50.321Z,99577.06
2018-12-04T02:03:22.979Z,99582.89
2018-12-04T02:05:55.576Z,99593.88
2018-12-04T02:08:28.372Z,99599.37
2018-12-04T02:11:00.955Z,99612.82
2018-12-04T02:13:33.608Z,99621.05
2018-12-04T02:16:06.222Z,99625.05
2018-12-04T02:18:38.890Z,99628.80
2018-12-04T02:21:11.440Z,99628.67
2018-12-04T02:23:44.039Z,99629.50
2018-12-04T02:26:16.591Z,99637.92
2018-12-04T02:28:49.208Z,99640.53
2018-12-04T02:31:21.775Z,99654.92
2018-12-04T02:33:54.351Z,99659.32
2018-12-04T02:36:26.916Z,99667.96
2018-12-04T02:38:59.502Z,99678.55
2018-12-04T02:41:32.063Z,99677.59
2018-12-04T02:44:04.748Z,99683.45
2018-12-04T02:46:37.305Z,99692.99
2018-12-04T02:49:09.886Z,99698.56
2018-12-04T02:51:42.423Z,99704.08
2018-12-04T02:54:15.008Z,99715.14
2018-12-04T02:56:47.569Z,99726.53
2018-12-04T02:59:20.159Z,99724.04
2018-12-04T03:01:52.709Z,99737.71
2018-12-04T03:04:25.304Z,99738.22
2018-12-04T03:06:57.853Z,99745.45
2018-12-04T03:09:30.507Z,99750.97
2018-12-04T03:12:03.175Z,99750.46
2018-12-04T03:14:35.856Z,99756.93
2018-12-04T03:17:08.399Z,99765.11
2018-12-04T03:19:40.991Z,99765.09
2018-12-04T03:22:13.536Z,99773.39
2018-12-04T03:24:46.125Z,99780.95
2018-12-04T03:27:18.679Z,99787.91
2018-12-04T03:29:51.352Z,99791.23
2018-12-04T03:32:23.909Z,99800.97
2018-12-04T03:34:56.499Z,99806.84
2018-12-04T03:37:29.042Z,99805.56
2018-12-04T03:40:01.636Z,99814.98
2018-12-04T03:42:34.263Z,99815.45
2018-12-04T03:45:06.997Z,99827.73
2018-12-04T03:47:39.551Z,99837.36
2018-12-04T03:50:12.198Z,99845.92
2018-12-04T03:52:44.744Z,99852.34
2018-12-04T03:55:17.415Z,99857.22
2018-12-04T03:57:49.978Z,99858.50
2018-12-04T04:00:22.556Z,99867.55
2018-12-04T04:02:55.109Z,99879.81
2018-12-04T04:05:27.826Z,99880.09
2018-12-04T04:08:00.369Z,99885.25
2018-12-04T04:10:33.047Z,99890.98
2018-12-04T04:13:05.586Z,99902.13
2018-12-04T04:15:38.530Z,99910.61
2018-12-04T04:18:11.070Z,99914.25
2018-12-04T04:20:43.674Z,99921.47
2018-12-04T04:23:16.236Z,99927.23
2018-12-04T04:25:48.823Z,99925.95
2018-12-04T04:28:21.412Z,99934.66
2018-12-04T04:30:54.064Z,99941.17
2018-12-04T04:33:26.683Z,99947.54
2018-12-04T04:35:59.287Z,99946.09
2018-12-04T04:38:31.836Z,99951.63
2018-12-04T04:41:04.404Z,99960.53
2018-12-04T04:43:36.947Z,99961.36
2018-12-04T04:46:09.540Z,99957.80
2018-12-04T04:48:42.098Z,99967.84
2018-12-04T04:51:14.685Z,99975.04
2018-12-04T04:53:47.257Z,99981.34
2018-12-04T04:56:19.931Z,99987.85
2018-12-04T04:58:52.644Z,99979.05
2018-12-04T05:01:25.241Z,99989.90
2018-12-04T05:03:57.806Z,99988.75
2018-12-04T05:06:30.487Z,100006.53
2018-12-04T05:09:03.913Z,100007.34
2018-12-04T05:11:36.522Z,100009.13
2018-12-04T05:14:09.089Z,100002.75
2018-12-04T05:16:41.675Z,100018.70
2018-12-04T05:19:14.269Z,100028.31
2018-12-04T05:21:46.943Z,100037.54
2018-12-04T05:24:19.489Z,100037.86
2018-12-04T05:26:52.097Z,100057.98
2018-12-04T05:29:24.668Z,100061.44
2018-12-04T05:31:57.263Z,100063.63
2018-12-04T05:34:29.827Z,100074.67
2018-12-04T05:37:02.450Z,100077.16
2018-12-04T05:39:35.027Z,100077.22
2018-12-04T05:42:07.707Z,100078.98
2018-12-04T05:44:40.251Z,100073.91
2018-12-04T05:47:12.837Z,100085.03
2018-12-04T05:49:45.393Z,100095.27
2018-12-04T05:52:18.090Z,100093.95
2018-12-04T05:54:50.670Z,100104.52
2018-12-04T05:57:23.295Z,100105.85
2018-12-04T05:59:55.850Z,100107.91
2018-12-04T06:02:28.423Z,100113.22
2018-12-04T06:05:00.975Z,100114.17
2018-12-04T06:07:33.554Z,100120.53
2018-12-04T06:10:06.331Z,100124.91
2018-12-04T06:12:39.004Z,100135.19
2018-12-04T06:15:12.185Z,100139.91
2018-12-04T06:17:44.806Z,100151.79
2018-12-04T06:20:17.376Z,100160.48
2018-12-04T06:22:49.952Z,100163.45
2018-12-04T06:25:22.499Z,100159.35
2018-12-04T06:27:55.419Z,100175.95
2018-12-04T06:30:27.970Z,100175.70
2018-12-04T06:33:00.639Z,100183.82
2018-12-04T06:35:33.179Z,100194.09
2018-12-04T06:38:05.856Z,100204.12
2018-12-04T06:40:38.414Z,100215.95
2018-12-04T06:43:11.010Z,100226.97
2018-12-04T06:45:43.556Z,100231.22
2018-12-04T06:48:16.135Z,100242.70
2018-12-04T06:50:48.671Z,100249.19
2018-12-04T06:53:21.234Z,100254.23
2018-12-04T06:55:53.825Z,100260.23
2018-12-04T06:58:26.456Z,100266.71
2018-12-04T07:00:58.976Z,100277.72
2018-12-04T07:03:31.627Z,100287.92
2018-12-04T07:06:04.170Z,100298.54
2018-12-04T07:08:36.949Z,100301.98
2018-12-04T07:11:09.497Z,100307.95
2018-12-04T07:13:42.163Z,100317.61
2018-12-04T07:16:14.725Z,100326.51
2018-12-04T07:18:47.282Z,100321.42
2018-12-04T07:21:19.823Z,100329.99
2018-12-04T07:23:52.645Z,100340.59
2018-12-04T07:26:25.183Z,100343.54
2018-12-04T07:28:57.755Z,100345.22
2018-12-04T07:31:30.296Z,100349.42
2018-12-04T07:34:02.874Z,100357.59
2018-12-04T07:36:35.412Z,100357.62
2018-12-04T07:39:08.521Z,100360.20
2018-12-04T07:41:41.081Z,100364.45
2018-12-04T07:44:13.641Z,100372.95
2018-12-04T07:46:46.160Z,100381.88
2018-12-04T07:49:18.719Z,100391.14
2018-12-04T07:51:51.255Z,100398.40
2018-12-04T07:54:23.912Z,100406.83
2018-12-04T07:56:56.438Z,100411.91
2018-12-04T07:59:29.003Z,100419.11
2018-12-04T08:02:01.549Z,100428.00
2018-12-04T08:04:34.130Z,100437.73
2018-12-04T08:07:06.675Z,100445.80
2018-12-04T08:09:39.319Z,100447.88
2018-12-04T08:12:11.858Z,100457.55
2018-12-04T08:14:44.479Z,100463.45
2018-12-04T08:17:17.018Z,100468.22
2018-12-04T08:19:49.582Z,100472.46
2018-12-04T08:22:22.111Z,100479.57
2018-12-04T08:24:54.682Z,100485.92
2018-12-04T08:27:27.229Z,100489.74
2018-12-04T08:29:59.999Z,100483.36
2018-12-04T08:32:32.548Z,100492.66
2018-12-04T08:35:06.489Z,100501.94
2018-12-04T08:37:39.021Z,100512.95
2018-12-04T08:40:11.591Z,100521.33
2018-12-04T08:42:44.155Z,100525.55
2018-12-04T08:45:16.707Z,100530.86
2018-12-04T08:47:49.248Z,100525.08
2018-12-04T08:50:21.827Z,100532.54
2018-12-04T08:52:54.417Z,100549.59
2018-12-04T08:55:27.095Z,100553.91
2018-12-04T08:57:59.664Z,100551.20
2018-12-04T09:00:32.237Z,100558.19
2018-12-04T09:03:04.759Z,100567.87
2018-12-04T09:05:37.341Z,100563.97
2018-12-04T09:08:09.871Z,100567.76
2018-12-04T09:10:42.531Z,100573.73
2018-12-04T09:13:15.058Z,100581.33
2018-12-04T09:15:47.717Z,100589.73
2018-12-04T09:18:20.289Z,100598.36
2018-12-04T09:20:52.995Z,100598.33
2018-12-04T09:23:25.582Z,100609.82
2018-12-04T09:25:58.363Z,100616.09
2018-12-04T09:28:30.938Z,100615.69
2018-12-04T09:31:03.613Z,100635.19
2018-12-04T09:33:36.225Z,100636.56
2018-12-04T09:36:08.836Z,100645.55
2018-12-04T09:38:41.389Z,100646.32
2018-12-04T09:41:14.048Z,100653.16
2018-12-04T09:43:46.748Z,100654.40
2018-12-04T09:46:19.415Z,100659.06
2018-12-04T09:48:51.955Z,100661.47
2018-12-04T09:51:24.656Z,100659.36
2018-12-04T09:53:57.203Z,100660.23
2018-12-04T09:56:29.857Z,100665.62
2018-12-04T09:59:02.476Z,100670.25
2018-12-04T10:01:35.229Z,100678.80
2018-12-04T10:04:07.756Z,100674.55
2018-12-04T10:06:40.503Z,100684.23
2018-12-04T10:09:13.054Z,100683.72
2018-12-04T10:11:45.720Z,100689.39
2018-12-04T10:14:19.220Z,100684.59
2018-12-04T10:16:51.985Z,100687.91
2018-12-04T10:19:24.530Z,100687.58
2018-12-04T10:21:57.110Z,100698.24
2018-12-04T10:24:29.661Z,100699.12
2018-12-04T10:27:02.249Z,100714.78
2018-12-04T10:29:34.816Z,100711.72
2018-12-04T10:32:07.392Z,100710.81
2018-12-04T10:34:39.929Z,100721.95
2018-12-04T10:37:12.732Z,100713.44
2018-12-04T10:39:45.280Z,100729.93
2018-12-04T10:42:17.850Z,100734.22
2018-12-04T10:44:50.406Z,100737.20
2018-12-04T10:47:23.072Z,100750.69
2018-12-04T10:49:55.677Z,100755.35
2018-12-04T10:52:28.247Z,100754.52
2018-12-04T10:55:00.804Z,100756.63
2018-12-04T10:57:33.525Z,100759.11
2018-12-04T11:00:10.694Z,100761.86
2018-12-04T11:02:44.594Z,100771.92
2018-12-04T11:05:17.149Z,100777.76
2018-12-04T11:07:49.723Z,100785.84
2018-12-04T11:10:22.275Z,100780.84
2018-12-04T11:12:54.935Z,100774.20
2018-12-04T11:15:27.486Z,100788.55
2018-12-04T11:18:00.064Z,100794.83
2018-12-04T11:20:32.645Z,100796.04
2018-12-04T11:23:05.294Z,100809.22
2018-12-04T11:25:37.844Z,100815.44
2018-12-04T11:28:10.417Z,100819.05
2018-12-04T11:30:42.971Z,100812.17
2018-12-04T11:33:15.552Z,100815.56
2018-12-04T11:35:48.101Z,100819.60
2018-12-04T11:38:20.682Z,100820.15
2018-12-04T11:40:53.229Z,100832.44
2018-12-04T11:43:25.881Z,100837.75
2018-12-04T11:45:58.432Z,100834.62
2018-12-04T11:48:31.082Z,100837.13
2018-12-04T11:51:03.631Z,100836.73
2018-12-04T11:53:36.307Z,100843.44
2018-12-04T11:56:08.880Z,100864.25
2018-12-04T11:58:41.506Z,100855.25
2018-12-04T12:01:16.123Z,100863.67
2018-12-04T12:03:48.780Z,100867.94
2018-12-04T12:06:21.370Z,100873.98
2018-12-04T12:08:53.943Z,100878.33
2018-12-04T12:11:26.504Z,100884.13
2018-12-04T12:13:59.156Z,100886.58
2018-12-04T12:16:31.696Z,100893.63
2018-12-04T12:19:04.282Z,100903.56
2018-12-04T12:21:36.834Z,100903.52
2018-12-04T12:24:09.429Z,100912.97
2018-12-04T12:26:42.012Z,100921.83
2018-12-04T12:29:14.582Z,100924.84
2018-12-04T12:31:47.124Z,100925.03
2018-12-04T12:34:23.498Z,100931.45
2018-12-04T12:36:54.286Z,100943.02
2018-12-04T12:39:26.917Z,100943.02
2018-12-04T12:41:59.457Z,100936.37
2018-12-04T12:44:32.031Z,100937.62
2018-12-04T12:47:04.591Z,100940.98
2018-12-04T12:49:37.187Z,100939.30
2018-12-04T12:52:09.742Z,100943.91
2018-12-04T12:54:42.423Z,100947.28
2018-12-04T12:57:14.985Z,100940.90
2018-12-04T12:59:47.638Z,100951.56
2018-12-04T13:02:20.182Z,100952.84
2018-12-04T13:04:52.847Z,100954.90
2018-12-04T13:07:25.394Z,100959.10
2018-12-04T13:09:57.985Z,100960.84
2018-12-04T13:12:30.536Z,100960.38
2018-12-04T13:15:03.122Z,100962.90
2018-12-04T13:17:35.687Z,100968.11
2018-12-04T13:20:08.580Z,100975.67
2018-12-04T13:22:41.160Z,100977.66
2018-12-04T13:25:13.830Z,100983.55
2018-12-04T13:27:46.369Z,100994.56
2018-12-04T13:30:19.471Z,101006.48
2018-12-04T13:32:52.050Z,101039.23
2018-12-04T13:35:24.690Z,101050.61
2018-12-04T13:37:57.259Z,101039.05
2018-12-04T13:40:29.949Z,101066.69
2018-12-04T13:43:02.504Z,101080.77
2018-12-04T13:45:35.059Z,101064.77
2018-12-04T13:48:07.642Z,101037.63
2018-12-04T13:50:40.217Z,101055.42
2018-12-04T13:53:12.787Z,101060.55
2018-12-04T13:55:45.388Z,101059.25
2018-12-04T13:58:17.926Z,101061.39
2018-12-04T14:00:50.497Z,101061.84
2018-12-04T14:03:23.102Z,101065.23
2018-12-04T14:05:55.697Z,101078.81
2018-12-04T14:08:28.279Z,101079.23
2018-12-04T14:11:00.876Z,101080.95
2018-12-04T14:13:33.422Z,101089.87
2018-12-04T14:16:06.025Z,101097.05
2018-12-04T14:18:38.587Z,101104.70
2018-12-04T14:21:11.145Z,101110.62
2018-12-04T14:23:43.713Z,101120.80
2018-12-04T14:26:16.276Z,101125.45
2018-12-04T14:28:48.836Z,101125.03
2018-12-04T14:31:21.512Z,101136.89
2018-12-04T14:33:54.205Z,101141.55
2018-12-04T14:36:26.815Z,101139.00
2018-12-04T14:38:59.458Z,101145.33
2018-12-04T14:41:32.035Z,101144.91
2018-12-04T14:44:04.644Z,101141.95
2018-12-04T14:46:37.290Z,101138.13
2018-12-04T14:49:09.862Z,101152.94
2018-12-04T14:51:42.639Z,101156.73
2018-12-04T14:54:15.169Z,101157.16
2018-12-04T14:56:47.859Z,101163.07
2018-12-04T14:59:20.405Z,101163.06
2018-12-04T15:01:53.095Z,101168.97
2018-12-04T15:04:25.685Z,101162.59
2018-12-04T15:06:58.250Z,101179.94
2018-12-04T15:09:30.801Z,101190.50
2018-12-04T15:12:03.544Z,101190.89
2018-12-04T15:14:36.187Z,101189.59
2018-12-04T15:17:08.995Z,101190.83
2018-12-04T15:19:41.569Z,101191.23
2018-12-04T15:22:14.174Z,101194.58
2018-12-04T15:24:46.846Z,101200.94
2018-12-04T15:27:19.554Z,101217.83
2018-12-04T15:29:52.200Z,101223.26
2018-12-04T15:32:24.873Z,101220.70
2018-12-04T15:34:57.423Z,101215.12
2018-12-04T15:37:30.142Z,101228.26
2018-12-04T15:40:03.280Z,101229.95
2018-12-04T15:42:36.050Z,101242.16
2018-12-04T15:45:08.641Z,101245.97
2018-12-04T15:47:41.438Z,101253.13
2018-12-04T15:50:14.095Z,101248.88
2018-12-04T15:52:46.760Z,101259.84
2018-12-04T15:55:19.309Z,101257.69
2018-12-04T15:57:51.876Z,101264.88
2018-12-04T16:00:24.403Z,101272.88
2018-12-04T16:02:57.011Z,101283.45
2018-12-04T16:05:29.650Z,101288.91
2018-12-04T16:08:02.229Z,101292.68
2018-12-04T16:10:34.762Z,101290.95
2018-12-04T16:13:07.567Z,101300.67
2018-12-04T16:15:40.286Z,101307.44
2018-12-04T16:18:12.834Z,101317.55
2018-12-04T16:20:45.372Z,101328.57
2018-12-04T16:23:18.048Z,101332.84
2018-12-04T16:25:50.599Z,101340.02
2018-12-04T16:28:23.162Z,101332.45
2018-12-04T16:30:55.695Z,101335.90
2018-12-04T16:33:28.253Z,101332.94
2018-12-04T16:36:00.783Z,101355.27
2018-12-04T16:38:33.450Z,101356.19
2018-12-04T16:41:06.320Z,101344.81
2018-12-04T16:43:39.078Z,101349.53
2018-12-04T16:46:11.622Z,101349.95
2018-12-04T16:48:44.210Z,101351.71
2018-12-04T16:51:16.742Z,101347.94
2018-12-04T16:53:49.308Z,101355.20
2018-12-04T16:56:21.837Z,101353.53
2018-12-04T16:58:54.526Z,101360.20
2018-12-04T17:01:27.073Z,101363.09
2018-12-04T17:03:59.748Z,101359.19
2018-12-04T17:06:32.275Z,101366.48
2018-12-04T17:09:06.403Z,101383.89
2018-12-04T17:11:38.937Z,101389.45
2018-12-04T17:14:11.586Z,101389.45
2018-12-04T17:16:44.140Z,101379.79
2018-12-04T17:19:17.709Z,101381.03
2018-12-04T17:21:50.246Z,101384.34
2018-12-04T17:24:22.829Z,101392.73
2018-12-04T17:26:55.405Z,101388.50
2018-12-04T17:29:28.086Z,101392.73
2018-12-04T17:32:00.643Z,101391.85
2018-12-04T17:34:33.230Z,101402.00
2018-12-04T17:37:05.780Z,101403.20
2018-12-04T17:39:38.444Z,101404.46
2018-12-04T17:42:11.036Z,101405.73
2018-12-04T17:44:43.611Z,101409.95
2018-12-04T17:47:16.144Z,101405.23
2018-12-04T17:49:48.688Z,101407.73
2018-12-04T17:52:21.234Z,101405.16
2018-12-04T17:54:53.812Z,101406.37
2018-12-04T17:57:26.360Z,101405.49
2018-12-04T17:59:58.923Z,101407.56
2018-12-04T18:02:31.455Z,101414.71
2018-12-04T18:05:04.277Z,101414.33
2018-12-04T18:07:36.811Z,101421.44
2018-12-04T18:10:09.653Z,101419.75
2018-12-04T18:12:42.201Z,101422.73
2018-12-04T18:15:14.834Z,101438.34
2018-12-04T18:17:47.363Z,101445.89
2018-12-04T18:20:19.943Z,101450.50
2018-12-04T18:22:52.532Z,101449.15
2018-12-04T18:25:25.103Z,101457.05
2018-12-04T18:27:57.669Z,101459.95
2018-12-04T18:30:30.245Z,101454.51
2018-12-04T18:33:02.788Z,101461.17
2018-12-04T18:35:35.493Z,101461.55
2018-12-04T18:38:08.156Z,101460.70
2018-12-04T18:40:40.735Z,101462.75
2018-12-04T18:43:13.281Z,101469.46
2018-12-04T18:45:46.046Z,101466.08
2018-12-04T18:48:18.611Z,101469.46
2018-12-04T18:50:51.233Z,101467.78
2018-12-04T18:53:23.887Z,101467.77
2018-12-04T18:55:56.477Z,101470.30
2018-12-04T18:58:29.023Z,101475.84
2018-12-04T19:01:01.929Z,101477.54
2018-12-04T19:03:34.481Z,101477.06
2018-12-04T19:06:07.141Z,101480.41
2018-12-04T19:08:45.394Z,101481.24
2018-12-04T19:11:18.070Z,101485.47
2018-12-04T19:13:50.613Z,101486.67
2018-12-04T19:16:23.221Z,101479.92
2018-12-04T19:18:55.758Z,101485.78
2018-12-04T19:21:28.332Z,101483.55
2018-12-04T19:24:00.886Z,101490.27
2018-12-04T19:26:33.463Z,101487.30
2018-12-04T19:29:06.124Z,101496.17
2018-12-04T19:31:39.311Z,101498.66
2018-12-04T19:34:11.954Z,101499.02
2018-12-04T19:36:44.519Z,101501.98
2018-12-04T19:39:17.054Z,101503.66
2018-12-04T19:41:49.631Z,101513.43
2018-12-04T19:44:22.186Z,101513.42
2018-12-04T19:46:54.894Z,101520.18
2018-12-04T19:49:27.509Z,101526.93
2018-12-04T19:52:00.325Z,101522.30
2018-12-04T19:54:32.875Z,101534.05
2018-12-04T19:57:05.453Z,101535.37
2018-12-04T19:59:38.002Z,101542.02
2018-12-04T20:02:10.586Z,101541.17
2018-12-04T20:04:43.134Z,101549.14
2018-12-04T20:07:15.723Z,101552.94
2018-12-04T20:09:48.308Z,101566.44
2018-12-04T20:12:21.033Z,101561.78
2018-12-04T20:14:53.570Z,101570.59
2018-12-04T20:17:26.148Z,101573.92
2018-12-04T20:19:58.699Z,101576.57
2018-12-04T20:22:31.363Z,101580.23
2018-12-04T20:25:04.479Z,101581.09
2018-12-04T20:27:37.065Z,101582.71
2018-12-04T20:30:09.630Z,101594.95
2018-12-04T20:32:42.316Z,101591.08
2018-12-04T20:35:14.861Z,101595.73
2018-12-04T20:37:47.427Z,101600.23
2018-12-04T20:40:19.968Z,101612.47
2018-12-04T20:42:52.525Z,101619.64
2018-12-04T20:45:25.067Z,101618.75
2018-12-04T20:47:58.066Z,101614.04
2018-12-04T20:50:30.862Z,101617.41
2018-12-04T20:53:03.554Z,101622.41
2018-12-04T20:55:36.101Z,101615.99
2018-12-04T20:58:08.893Z,101623.11
2018-12-04T21:00:41.431Z,101623.09
2018-12-04T21:03:14.071Z,101620.51
2018-12-04T21:05:46.756Z,101620.84
2018-12-04T21:08:19.546Z,101625.86
2018-12-04T21:10:52.094Z,101635.06
2018-12-04T21:13:24.666Z,101632.08
2018-12-04T21:15:57.239Z,101640.88
2018-12-04T21:18:29.884Z,101643.34
2018-12-04T21:21:02.445Z,101641.23
2018-12-04T21:23:35.011Z,101645.01
2018-12-04T21:26:07.563Z,101646.56
2018-12-04T21:28:42.174Z,101646.48
2018-12-04T21:31:20.351Z,101649.84
2018-12-04T21:37:03.939Z,101651.81
2018-12-04T21:39:36.522Z,101661.08
2018-12-04T21:42:14.720Z,101660.59
2018-12-04T21:44:52.881Z,101658.48
2018-12-04T21:47:31.002Z,101655.53
2018-12-04T21:50:04.160Z,101651.72
2018-12-04T21:52:36.723Z,101639.48
2018-12-04T21:55:09.311Z,101644.49
2018-12-04T21:57:41.924Z,101651.59
2018-12-04T22:00:14.845Z,101648.98
2018-12-04T22:02:47.374Z,101651.06
2018-12-04T22:05:20.274Z,101655.29
2018-12-04T22:07:53.207Z,101649.75
2018-12-04T22:10:26.660Z,101659.06
2018-12-04T22:12:59.228Z,101658.16
2018-12-04T22:15:31.836Z,101665.31
2018-12-04T22:18:04.495Z,101666.06
2018-12-04T22:20:37.290Z,101671.07
2018-12-04T22:23:09.825Z,101673.58
2018-12-04T22:25:42.396Z,101675.98
2018-12-04T22:28:14.955Z,101679.75
2018-12-04T22:30:47.549Z,101691.56
2018-12-04T22:33:20.390Z,101693.65
2018-12-04T22:35:53.040Z,101697.86
2018-12-04T22:38:25.572Z,101698.63
2018-12-04T22:40:58.468Z,101701.00
2018-12-04T22:43:31.000Z,101697.08
2018-12-04T22:46:05.208Z,101699.89
2018-12-04T22:48:38.240Z,101697.77
2018-12-04T22:51:10.892Z,101698.19
2018-12-04T22:53:43.394Z,101691.48
2018-12-04T22:56:16.608Z,101694.47
2018-12-04T22:58:49.403Z,101694.67
2018-12-04T23:01:40.283Z,101701.45
2018-12-04T23:04:12.862Z,101695.50
2018-12-04T23:06:45.432Z,101695.91
2018-12-04T23:09:17.963Z,101699.13
2018-12-04T23:11:50.531Z,101702.04
2018-12-04T23:14:23.071Z,101700.39
2018-12-04T23:16:55.860Z,101704.65
2018-12-04T23:19:28.386Z,101702.97
2018-12-04T23:22:00.972Z,101707.20
2018-12-04T23:24:33.536Z,101707.28
2018-12-04T23:27:06.095Z,101710.58
2018-12-04T23:29:38.713Z,101716.10
2018-12-04T23:32:11.764Z,101714.42
2018-12-04T23:34:44.295Z,101725.66
2018-12-04T23:37:16.866Z,101722.34
2018-12-04T23:39:49.403Z,101717.75
2018-12-04T23:42:22.019Z,101726.65
2018-12-04T23:44:54.572Z,101718.13
2018-12-04T23:47:27.292Z,101722.34
2018-12-04T23:49:59.848Z,101734.14
2018-12-04T23:52:32.433Z,101735.33
2018-12-04T23:55:05.637Z,101732.45
2018-12-04T23:57:38.303Z,101733.16
